createdAt,value
2018-09-25T18:32:35.849Z,79.93
2018-09-25T18:33:50.930Z,78.39
2018-09-25T18:35:05.504Z,75.81
2018-09-25T18:36:20.591Z,74.66
2018-09-25T18:37:35.645Z,74.85
2018-09-25T18:38:50.063Z,74.73
2018-09-25T18:40:04.029Z,75.49
2018-09-25T18:41:18.113Z,75.39
2018-09-25T18:42:31.971Z,76.06
2018-09-25T18:43:47.054Z,75.78
2018-09-25T18:45:01.728Z,76.64
2018-09-25T18:47:44.134Z,77.11
2018-09-25T18:48:58.207Z,77.3
2018-09-25T18:50:12.103Z,78.51
2018-09-25T18:51:26.912Z,79.56
2018-09-25T18:52:41.375Z,79.56
2018-09-25T18:53:55.462Z,79.56
2018-09-25T18:55:09.471Z,80.9
2018-09-25T18:56:23.786Z,81.76
2018-09-25T18:57:38.258Z,81.66
2018-09-25T18:58:52.665Z,81.52
2018-09-25T19:00:06.710Z,81.14
2018-09-25T19:01:20.859Z,81.04
2018-09-25T19:02:34.619Z,81.33
2018-09-25T19:03:48.750Z,81.43
2018-09-25T19:05:03.193Z,81.04
2018-09-25T19:06:17.621Z,81.14
2018-09-25T19:07:31.675Z,81.62
2018-09-25T19:08:45.868Z,81.62
2018-09-25T19:09:59.712Z,81.33
2018-09-25T19:11:13.332Z,82.29
2018-09-25T19:12:27.409Z,81.81
2018-09-25T19:13:41.983Z,82.19
2018-09-25T19:14:56.046Z,82.19
2018-09-25T19:16:11.091Z,82.48
2018-09-25T19:17:25.139Z,82.57
2018-09-25T19:18:39.074Z,82.57
2018-09-25T19:19:53.149Z,83.05
2018-09-25T19:21:07.270Z,83.43
2018-09-25T19:22:21.425Z,83.24
2018-09-25T19:23:35.640Z,83.43
2018-09-25T19:24:49.936Z,83.14
2018-09-25T19:26:04.505Z,83.43
2018-09-25T19:27:18.417Z,83.24
2018-09-25T19:28:32.678Z,84.96
2018-09-25T19:29:46.807Z,86.01
2018-09-25T19:31:01.006Z,85.97
2018-09-25T19:32:14.950Z,86.06
2018-09-25T19:33:29.601Z,85.68
2018-09-25T19:34:43.734Z,86.06
2018-09-25T19:35:57.585Z,86.92
2018-09-25T19:37:12.199Z,88.35
2018-09-25T19:38:26.256Z,89.21
2018-09-25T19:39:40.313Z,90.73
2018-09-25T19:40:54.162Z,90.93
2018-09-25T19:42:08.261Z,91.78
2018-09-25T19:43:21.827Z,92.93
2018-09-25T19:44:35.834Z,94.32
2018-09-25T19:45:50.666Z,95.75
2018-09-25T19:47:05.030Z,96.13
2018-09-25T19:48:19.195Z,95.65
2018-09-25T19:49:33.071Z,95.84
2018-09-25T19:50:47.514Z,94.12
2018-09-25T19:52:01.855Z,92.98
2018-09-25T19:53:16.476Z,92.41
2018-09-25T19:54:30.624Z,92.98
2018-09-25T19:55:44.706Z,93.93
2018-09-25T19:56:58.549Z,95.08
2018-09-25T19:58:13.080Z,96.03
2018-09-25T19:59:27.428Z,96.22
2018-09-25T20:00:42.091Z,96.46
2018-09-25T20:01:55.979Z,97.51
2018-09-25T20:03:10.437Z,98.75
2018-09-25T20:04:24.388Z,99.89
2018-09-25T20:05:39.208Z,99.99
2018-09-25T20:06:53.294Z,99.99
2018-09-25T20:08:07.659Z,99.99
2018-09-25T20:09:21.527Z,99.99
2018-09-25T20:10:35.855Z,99.99
2018-09-25T20:11:50.429Z,99.99
2018-09-25T20:13:04.247Z,99.99
2018-09-25T20:14:18.535Z,99.99
2018-09-25T20:15:32.565Z,99.99
2018-09-25T20:16:46.466Z,99.99
2018-09-25T20:18:01.117Z,99.99
2018-09-25T20:19:14.916Z,99.99
2018-09-25T20:20:29.773Z,99.99
2018-09-25T20:21:44.129Z,99.99
2018-09-25T20:22:58.238Z,99.99
2018-09-25T20:24:11.957Z,99.99
2018-09-25T20:25:25.835Z,99.99
2018-09-25T20:26:40.390Z,99.99
2018-09-25T20:27:54.637Z,99.99
2018-09-25T20:29:08.271Z,99.99
2018-09-25T20:30:23.119Z,99.99
2018-09-25T20:31:37.212Z,99.99
2018-09-25T20:32:51.269Z,99.99
2018-09-25T20:34:05.120Z,99.99
2018-09-25T20:35:18.977Z,99.99
2018-09-25T20:36:33.046Z,99.99
2018-09-25T20:37:46.868Z,99.99
2018-09-25T20:39:01.234Z,99.99
2018-09-25T20:40:16.874Z,99.99
2018-09-25T20:41:32.576Z,99.99
2018-09-25T20:42:48.981Z,99.99
2018-09-25T20:44:04.155Z,99.99
2018-09-25T20:45:19.571Z,99.99
2018-09-25T20:46:35.732Z,99.99
2018-09-25T20:47:51.662Z,99.99
2018-09-25T20:49:07.529Z,99.99
2018-09-25T20:50:23.606Z,99.99
2018-09-25T20:51:37.430Z,99.99
2018-09-25T20:52:52.040Z,99.99
2018-09-25T20:54:06.608Z,99.99
2018-09-25T20:55:20.404Z,99.99
2018-09-25T20:56:34.483Z,99.99
2018-09-25T20:57:48.785Z,99.99
2018-09-25T20:59:03.092Z,99.99
2018-09-25T21:00:16.696Z,99.99
2018-09-25T21:01:31.176Z,99.99
2018-09-25T21:02:45.716Z,99.99
2018-09-25T21:03:59.784Z,99.99
2018-09-25T21:05:13.875Z,99.99
2018-09-25T21:06:27.699Z,99.99
2018-09-25T21:07:41.340Z,99.99
2018-09-25T21:08:55.194Z,99.99
2018-09-25T21:10:09.306Z,99.99
2018-09-25T21:11:22.951Z,99.99
2018-09-25T21:12:37.304Z,99.99
2018-09-25T21:13:52.214Z,99.99
2018-09-25T21:15:06.615Z,99.99
2018-09-25T21:16:20.340Z,99.99
2018-09-25T21:17:34.994Z,99.99
2018-09-25T21:18:49.420Z,99.99
2018-09-25T21:20:03.497Z,99.99
2018-09-25T21:21:17.723Z,99.99
2018-09-25T21:22:31.665Z,99.99
2018-09-25T21:23:45.713Z,99.99
2018-09-25T21:25:00.018Z,99.99
2018-09-25T21:26:14.552Z,99.99
2018-09-25T21:27:29.107Z,99.99
2018-09-25T21:28:44.022Z,99.99
2018-09-25T21:29:58.601Z,99.99
2018-09-25T21:31:12.882Z,99.99
2018-09-25T21:32:27.250Z,99.99
2018-09-25T21:33:41.817Z,99.99
2018-09-25T21:34:55.903Z,99.99
2018-09-25T21:36:09.980Z,99.99
2018-09-25T21:37:24.342Z,99.99
2018-09-25T21:38:38.639Z,99.99
2018-09-25T21:39:53.035Z,99.99
2018-09-25T21:41:06.666Z,99.99
2018-09-25T21:42:20.940Z,99.99
2018-09-25T21:43:34.461Z,99.99
2018-09-25T21:44:49.068Z,99.99
2018-09-25T21:46:03.513Z,99.99
2018-09-25T21:47:17.154Z,99.99
2018-09-25T21:48:31.246Z,99.99
2018-09-25T21:49:45.417Z,99.99
2018-09-25T21:51:00.218Z,99.99
2018-09-25T21:52:15.999Z,99.99
2018-09-25T21:53:29.819Z,99.99
2018-09-25T21:54:43.637Z,99.99
2018-09-25T21:55:57.475Z,99.99
2018-09-25T21:57:13.207Z,99.99
2018-09-25T21:58:27.557Z,99.99
2018-09-25T21:59:42.103Z,99.99
2018-09-25T22:00:55.931Z,99.99
2018-09-25T22:02:09.900Z,99.99
2018-09-25T22:03:24.597Z,99.99
2018-09-25T22:04:38.263Z,99.99
2018-09-25T22:06:07.224Z,99.99
2018-09-25T22:07:21.483Z,99.99
2018-09-25T22:08:35.828Z,99.99
2018-09-25T22:09:49.853Z,99.99
2018-09-25T22:11:03.489Z,99.99
2018-09-25T22:12:17.951Z,99.99
2018-09-25T22:13:31.554Z,99.99
2018-09-25T22:14:45.877Z,99.99
2018-09-25T22:15:59.956Z,99.99
2018-09-25T22:17:13.797Z,99.99
2018-09-25T22:18:28.177Z,99.99
2018-09-25T22:19:41.987Z,99.99
2018-09-25T22:20:56.291Z,99.99
2018-09-25T22:22:09.934Z,99.99
2018-09-25T22:23:24.287Z,99.99
2018-09-25T22:24:37.990Z,99.99
2018-09-25T22:25:52.699Z,99.99
2018-09-25T22:27:07.005Z,99.99
2018-09-25T22:28:21.302Z,99.99
2018-09-25T22:29:35.575Z,99.99
2018-09-25T22:30:50.028Z,99.99
2018-09-25T22:32:04.306Z,99.99
2018-09-25T22:33:18.831Z,99.99
2018-09-25T22:34:33.132Z,99.99
2018-09-25T22:35:47.190Z,99.99
2018-09-25T22:37:01.629Z,99.99
2018-09-25T22:38:15.733Z,99.99
2018-09-25T22:39:30.010Z,99.99
2018-09-25T22:40:44.116Z,99.99
2018-09-25T22:41:57.722Z,99.99
2018-09-25T22:43:11.514Z,99.99
2018-09-25T22:44:25.930Z,99.99
2018-09-25T22:45:39.773Z,99.99
2018-09-25T22:46:53.816Z,99.99
2018-09-25T22:48:07.608Z,99.99
2018-09-25T22:49:21.648Z,99.99
2018-09-25T22:50:35.718Z,99.99
2018-09-25T22:51:50.217Z,99.99
2018-09-25T22:53:04.257Z,99.99
2018-09-25T22:54:18.792Z,99.99
2018-09-25T22:55:32.313Z,99.99
2018-09-25T22:56:46.385Z,99.99
2018-09-25T22:58:00.727Z,99.99
2018-09-25T22:59:14.781Z,99.99
2018-09-25T23:00:28.597Z,99.99
2018-09-25T23:01:42.500Z,99.99
2018-09-25T23:02:56.793Z,99.99
2018-09-25T23:04:11.151Z,99.99
2018-09-25T23:05:25.175Z,99.99
2018-09-25T23:06:39.017Z,99.99
2018-09-25T23:07:52.821Z,99.99
2018-09-25T23:09:06.421Z,99.99
2018-09-25T23:10:20.736Z,99.99
2018-09-25T23:11:34.421Z,99.99
2018-09-25T23:12:48.460Z,99.99
2018-09-25T23:14:02.013Z,99.99
2018-09-25T23:15:15.606Z,99.99
2018-09-25T23:16:29.882Z,99.99
2018-09-25T23:17:43.694Z,99.99
2018-09-25T23:18:57.804Z,99.99
2018-09-25T23:20:11.873Z,99.99
2018-09-25T23:21:25.972Z,99.99
2018-09-25T23:22:39.824Z,99.99
2018-09-25T23:23:53.888Z,99.99
2018-09-25T23:25:08.785Z,99.99
2018-09-25T23:26:22.809Z,99.99
2018-09-25T23:27:37.595Z,99.99
2018-09-25T23:28:51.498Z,99.99
2018-09-25T23:30:05.094Z,99.99
2018-09-25T23:31:19.442Z,99.99
2018-09-25T23:32:33.246Z,99.99
2018-09-25T23:33:47.680Z,99.99
2018-09-25T23:35:02.465Z,99.99
2018-09-25T23:36:16.037Z,99.99
2018-09-25T23:37:30.108Z,99.99
2018-09-25T23:38:44.115Z,99.99
2018-09-25T23:39:57.907Z,99.99
2018-09-25T23:41:11.512Z,99.99
2018-09-25T23:42:25.521Z,99.99
2018-09-25T23:43:39.966Z,99.99
2018-09-25T23:44:54.280Z,99.99
2018-09-25T23:46:07.830Z,99.99
2018-09-25T23:47:21.998Z,99.99
2018-09-25T23:48:35.799Z,99.99
2018-09-25T23:49:50.102Z,99.99
2018-09-25T23:51:04.380Z,99.99
2018-09-25T23:52:17.716Z,99.99
2018-09-25T23:53:32.508Z,99.99
2018-09-25T23:54:46.561Z,99.99
2018-09-25T23:56:00.882Z,99.99
2018-09-25T23:57:14.967Z,99.99
2018-09-25T23:58:28.898Z,99.99
2018-09-25T23:59:43.213Z,99.99
